Lake Levels
Share |
Lake Levels
LAKES RIVERS MARINAS NEWS HOUSES EVENTS MAPS
1,652 Lakes:
Lake Store

Lake Levels

LakeLevels.info is a national information and alert service for lake water levels in the United States. With a FREE member account you can receive water level alerts by email when the water level reaches your desired alert level.


We currently offer Lake Level information and alerts for 100 lakes and serve 11,413 members with 27,561 alerts.


Sign-up for a Lake Level Alert




Filter By State:
Lake Name Current
Level
Full Pool +/-
Full Pool
Reading
Date - Time
Alan Henry (TX) 2,221.78 2,224.00 -2.22 7/7/2015  9:30:00 AM
Amistad (TX) 1,089.11 1,117.00 -27.89 7/7/2015  8:15:00 AM
Amon Carter (TX) 921.27 920.00 1.27 7/7/2015  6:00:00 AM
Aquilla (TX) 538.38 537.50 0.88 7/7/2015  8:30:00 AM
Arlington (TX) 549.52 550.00 -0.48 7/7/2015  12:00:00 AM
Arrowhead (TX) 926.04 926.00 0.04 7/7/2015  12:00:00 AM
Athens (TX) 440.29 440.00 0.29 7/7/2015  9:30:00 AM
Austin (TX) 492.37 492.80 -0.43 7/6/2015  10:11:00 AM
Bardwell (TX) 439.68 421.00 18.68 7/7/2015  9:30:00 AM
Belton (TX) 603.98 594.00 9.98 7/7/2015  9:00:00 AM
Benbrook (TX) 703.58 694.00 9.58 7/7/2015  9:00:00 AM
Bob Sandlin (TX) 337.91 337.50 0.41 7/2/2015  9:50:00 AM
Bonham (TX) 564.84 565.00 -0.16 7/7/2015  9:00:00 AM
Brady Creek (TX) 1,727.37 1,743.00 -15.63 7/7/2015  9:45:00 AM
Bridgeport (TX) 836.31 836.00 0.31 7/7/2015  8:00:00 AM
Brownwood (TX) 1,423.96 1,425.00 -1.04 7/7/2015  8:30:00 AM
Buchanan (TX) 997.68 1,020.50 -22.82 7/6/2015  10:11:00 AM
Caddo (LA TX) 169.50 168.50 1.00 7/7/2015  8:00:00 AM
Canyon (TX) 909.63 909.00 0.63 7/7/2015  8:15:00 AM
Cedar Creek (TX) 321.91 322.00 -0.09 7/7/2015  8:45:00 AM
Champion Creek (TX) 2,036.63 2,083.00 -46.37 7/6/2015  10:01:00 AM
Cherokee (TX) 280.20 280.00 0.20 7/7/2015  7:00:00 AM
Choke Canyon (TX) 200.22 220.50 -20.28 7/7/2015  7:30:00 AM
Cisco (TX) 1,509.27 1,520.00 -10.73 7/7/2015  2:30:00 PM
Coleman (TX) 1,708.04 1,718.00 -9.96 7/7/2015  9:30:00 AM
Coleto Creek (TX) 98.32 98.28 0.04 7/7/2015  4:00:00 AM
Colorado City (TX) 2,049.54 2,070.20 -20.66 7/6/2015  10:01:00 AM
Conroe (TX) 200.94 201.00 -0.06 7/7/2015  8:45:00 AM
Corpus Christi (TX) 94.00 94.00 -0.00 7/4/2015  9:46:00 AM
E. V. Spence (TX) 1,836.53 1,898.00 -61.47 7/7/2015  9:00:00 AM
Eagle Mountain (TX) 649.30 649.00 0.30 7/7/2015  8:45:00 AM
Falcon (TX) 283.84 301.20 -17.36 7/6/2015  10:11:00 AM
Fork (TX) 403.23 403.00 0.23 7/7/2015  8:30:00 AM
Georgetown (TX) 792.99 791.00 1.99 7/7/2015  9:00:00 AM
Graham (TX) 1,074.72 1,075.00 -0.28 7/7/2015  9:00:00 AM
Granbury (TX) 692.73 693.00 -0.27 7/7/2015  9:30:00 AM
Granger (TX) 504.63 504.00 0.63 7/7/2015  9:00:00 AM
Grapevine (TX) 559.63 535.00 24.63 7/7/2015  8:45:00 AM
Hords Creek (TX) 1,886.23 1,900.00 -13.77 7/7/2015  9:30:00 AM
Houston (TX) 42.19 41.70 0.49 7/7/2015  8:30:00 AM
Hubbard Creek (TX) 1,163.07 1,183.00 -19.93 7/7/2015  9:15:00 AM
Hubert M Moss (TX) 714.88 715.00 -0.12 7/7/2015  9:15:00 AM
Inks (TX) 887.35 886.90 0.45 7/7/2015  4:00:00 AM
Jacksonville (TX) 421.67 422.00 -0.33 7/2/2015  9:50:00 AM
JB Thomas (TX) 2,250.97 2,258.00 -7.03 7/7/2015  9:45:00 AM
Jim Chapman (TX) 441.62 440.00 1.62 7/2/2015  9:50:00 AM
Joe Pool (TX) 534.41 522.00 12.41 7/7/2015  9:00:00 AM
Lake O' the Pines (TX) 235.46 228.50 6.96 7/2/2015  9:50:00 AM
Lavon (TX) 500.40 492.00 8.40 7/7/2015  9:00:00 AM
Leon (TX) 1,374.76 ??? 7/7/2015  9:45:00 AM
Lewisville (TX) 532.67 522.00 10.67 7/7/2015  8:30:00 AM
Limestone (TX) 362.86 363.00 -0.14 7/7/2015  8:45:00 AM
Livingston (TX) 131.68 131.00 0.68 7/7/2015  9:15:00 AM
Lyndon B. Johnson (TX) 824.71 825.00 -0.29 7/6/2015  10:11:00 AM
MacKenzie (TX) 3,027.28 3,100.00 -72.72 7/7/2015  8:30:00 AM
Marble Falls (TX) 736.34 737.00 -0.66 7/6/2015  10:11:00 AM
Martin Creek (TX) 305.96 306.00 -0.04 7/7/2015  9:30:00 AM
Medina (TX) 1,052.50 1,062.00 -9.50 7/7/2015  9:00:00 AM
Meredith (TX) 2,866.43 2,941.00 -74.57 7/7/2015  9:30:00 AM
Mexia (TX) 448.32 448.30 0.02 7/7/2015  9:15:00 AM
Millers Creek (TX) 1,334.61 1,334.00 0.61 7/7/2015  9:00:00 AM
Mineral Wells (TX) 863.59 863.00 0.59 7/7/2015  12:30:00 PM
Moss Creek (TX) 2,326.48 2,337.00 -10.52 7/7/2015  7:30:00 AM
Murvaul (TX) 265.37 265.50 -0.13 7/2/2015  9:50:00 AM
Nacogdoches (TX) 278.82 279.00 -0.18 7/2/2015  9:50:00 AM
Natural Dam Salt (TX) 2,447.33 2,457.00 -9.67 7/6/2015  10:01:00 AM
Navarro Mills (TX) 441.33 424.50 16.83 7/7/2015  9:00:00 AM
Nocona (TX) 828.06 827.00 1.06 7/7/2015  9:00:00 AM
O. C. Fisher (TX) 1,873.77 1,908.00 -34.23 7/7/2015  3:00:00 AM
O.H. Ivie (TX) 1,508.22 1,551.50 -43.28 7/7/2015  8:15:00 AM
Palestine (TX) 345.36 345.00 0.36 7/2/2015  9:50:00 AM
Palo Pinto (TX) 866.65 867.00 -0.35 7/7/2015  9:15:00 AM
Pat Cleburne (TX) 733.56 733.60 -0.04 7/7/2015  7:00:00 AM
Pat Mayse (TX) 455.39 451.00 4.39 7/2/2015  9:50:00 AM
Phantom Hill (TX) 1,622.89 1,635.90 -13.01 7/7/2015  12:00:00 AM
Possum Kingdom (TX) 999.26 1,000.00 -0.74 7/7/2015  9:34:00 AM
Proctor (TX) 1,168.45 1,162.00 6.45 7/7/2015  9:30:00 AM
Ray Hubbard (TX) 435.52 435.50 0.02 7/7/2015  7:30:00 AM
Ray Roberts (TX) 640.25 632.50 7.75 7/7/2015  9:15:00 AM
Red Bluff (TX) 2,821.74 2,827.13 -5.39 7/6/2015  10:01:00 AM
Richland Chambers (TX) 315.09 315.00 0.09 7/7/2015  9:34:00 AM
Sam Rayburn (TX) 171.96 164.40 7.56 7/7/2015  9:00:00 AM
Somerville (TX) 253.90 238.00 15.90 7/7/2015  9:00:00 AM
Squaw Creek (TX) 775.34 775.00 0.34 7/7/2015  10:00:00 AM
Stamford (TX) 1,416.37 1,417.00 -0.63 7/7/2015  9:30:00 AM
Steinhagen Reservoir (TX) 82.54 82.40 0.14 7/7/2015  8:00:00 AM
Stillhouse Hollow (TX) 623.43 622.00 1.43 7/7/2015  9:00:00 AM
Tawakoni (TX) 438.16 437.50 0.66 7/7/2015  9:30:00 AM
Texana (TX) 44.00 44.00 -0.00 7/7/2015  9:00:00 AM
Texoma (TX) 638.52 617.00 21.52 7/7/2015  9:00:00 AM
Toledo Bend (TX LA) 172.12 172.00 0.12 7/7/2015  9:30:00 AM
Travis (TX) 671.53 681.00 -9.47 7/7/2015  9:00:00 AM
Twin Buttes (TX) 1,899.10 1,940.00 -40.90 7/7/2015  12:00:00 AM
Tyler (TX) 375.55 375.50 0.05 7/2/2015  9:50:00 AM
Waco (TX) 463.26 462.00 1.26 7/7/2015  6:15:00 AM
Waxahachie (TX) 531.74 ??? 7/7/2015  12:00:00 AM
White River (TX) 2,356.66 ??? 7/7/2015  9:15:00 AM
Whitney (TX) 536.59 533.00 3.59 7/7/2015  9:15:00 AM
Worth (TX) 593.98 594.00 -0.02 7/7/2015  9:00:00 AM
Wright Patman (TX) 243.93 220.60 23.33 7/2/2015  9:50:00 AM


CURRENT DAILY STREAMFLOW CONDITIONS
High
90th percentile
75th - 89th percentile
25th - 74th percentile
10th - 24th percentile
10th percentile
Low
Not ranked

The colored dots on this map depict streamflow conditions as a percentile, which is computed from the period of record for the current day of the year. Only stations with at least 30 years of record are used. The gray circles indicate other stations that were not ranked in percentiles either because they have fewer than 30 years of record or because they report parameters other than streamflow. Some stations, for example, measure stage only.
TX Daily Streamflow Conditions



U.S. Drought Monitor